AJI9797 KOMA-KADS
Flight info
| Callsign | AJI9797 |
|---|---|
| Flight time | N/A |
| Altitude | 35000 |
| Route | HITUG SLANT3 |
| Aircraft | B738/M-SDE2E3FGHIRWXY/LB1 |
Departure
| Time | 2026-05-07 22:10 |
|---|---|
| Airport | Eppley Airfield (KOMA) |
Arrival
| Time | N/A |
|---|---|
| Airport | Addison Airport (KADS) |
| Time | Latitude | Longitude | Altitude | Speed | Heading |
|---|---|---|---|---|---|
| 2026-05-07 21:58 | 41.30139 | -95.89788 | 989 ft | 0 kts | 267° |
| 2026-05-07 22:02 | 41.30139 | -95.89780 | 984 ft | 2 kts | 267° |
| 2026-05-07 22:02 | 41.30140 | -95.89758 | 998 ft | 2 kts | 267° |
| 2026-05-07 22:02 | 41.30141 | -95.89736 | 990 ft | 2 kts | 267° |
| 2026-05-07 22:03 | 41.30141 | -95.89715 | 990 ft | 2 kts | 285° |
| 2026-05-07 22:03 | 41.30136 | -95.89701 | 988 ft | 0 kts | 329° |
| 2026-05-07 22:05 | 41.30142 | -95.89706 | 989 ft | 4 kts | 329° |
| 2026-05-07 22:05 | 41.30184 | -95.89745 | 986 ft | 10 kts | 322° |
| 2026-05-07 22:05 | 41.30243 | -95.89808 | 993 ft | 12 kts | 317° |
| 2026-05-07 22:05 | 41.30297 | -95.89855 | 990 ft | 8 kts | 360° |
| 2026-05-07 22:06 | 41.30326 | -95.89802 | 989 ft | 8 kts | 94° |
| 2026-05-07 22:06 | 41.30285 | -95.89742 | 989 ft | 10 kts | 142° |
| 2026-05-07 22:06 | 41.30218 | -95.89678 | 992 ft | 14 kts | 145° |
| 2026-05-07 22:06 | 41.30116 | -95.89582 | 984 ft | 21 kts | 143° |
| 2026-05-07 22:07 | 41.29992 | -95.89462 | 987 ft | 23 kts | 144° |
| 2026-05-07 22:07 | 41.29857 | -95.89335 | 982 ft | 24 kts | 145° |
| 2026-05-07 22:07 | 41.29726 | -95.89211 | 990 ft | 23 kts | 143° |
| 2026-05-07 22:07 | 41.29600 | -95.89090 | 987 ft | 22 kts | 145° |
| 2026-05-07 22:08 | 41.29475 | -95.88972 | 990 ft | 23 kts | 144° |
| 2026-05-07 22:08 | 41.29345 | -95.88849 | 986 ft | 23 kts | 144° |
| 2026-05-07 22:08 | 41.29241 | -95.88747 | 986 ft | 12 kts | 130° |
| 2026-05-07 22:08 | 41.29233 | -95.88707 | 983 ft | 4 kts | 84° |
| 2026-05-07 22:09 | 41.29251 | -95.88663 | 986 ft | 8 kts | 51° |
| 2026-05-07 22:09 | 41.29310 | -95.88644 | 981 ft | 10 kts | 341° |
| 2026-05-07 22:09 | 41.29455 | -95.88780 | 990 ft | 55 kts | 325° |
| 2026-05-07 22:09 | 41.29957 | -95.89259 | 984 ft | 121 kts | 325° |
| 2026-05-07 22:10 | 41.30796 | -95.90046 | 1024 ft | 170 kts | 323° |
| 2026-05-07 22:10 | 41.31815 | -95.90964 | 1686 ft | 174 kts | 324° |
| 2026-05-07 22:10 | 41.32762 | -95.91860 | 2718 ft | 160 kts | 318° |
| 2026-05-07 22:10 | 41.33358 | -95.93144 | 3274 ft | 181 kts | 282° |
| 2026-05-07 22:11 | 41.33184 | -95.94930 | 3511 ft | 214 kts | 247° |
| 2026-05-07 22:11 | 41.32134 | -95.96486 | 3775 ft | 243 kts | 216° |
| 2026-05-07 22:11 | 41.30448 | -95.97226 | 4101 ft | 270 kts | 187° |
| 2026-05-07 22:11 | 41.28563 | -95.97201 | 4886 ft | 277 kts | 179° |
| 2026-05-07 22:12 | 41.26642 | -95.97010 | 5828 ft | 276 kts | 178° |
| 2026-05-07 22:12 | 41.24716 | -95.96798 | 6666 ft | 280 kts | 177° |
| 2026-05-07 22:12 | 41.22746 | -95.96575 | 7362 ft | 288 kts | 178° |
| 2026-05-07 22:12 | 41.20732 | -95.96352 | 8102 ft | 294 kts | 179° |
| 2026-05-07 22:13 | 41.18663 | -95.96132 | 8785 ft | 302 kts | 180° |
| 2026-05-07 22:13 | 41.16540 | -95.95912 | 9535 ft | 308 kts | 180° |
| 2026-05-07 22:13 | 41.14385 | -95.95693 | 10240 ft | 314 kts | 181° |
| 2026-05-07 22:13 | 41.12132 | -95.95473 | 10522 ft | 337 kts | 180° |
| 2026-05-07 22:14 | 41.09712 | -95.95244 | 10711 ft | 360 kts | 180° |
| 2026-05-07 22:14 | 41.07135 | -95.94999 | 10892 ft | 382 kts | 180° |
| 2026-05-07 22:14 | 41.04431 | -95.94739 | 11247 ft | 396 kts | 180° |
| 2026-05-07 22:14 | 41.01700 | -95.94471 | 11903 ft | 400 kts | 180° |
| 2026-05-07 22:15 | 40.98916 | -95.94196 | 12604 ft | 403 kts | 180° |
| 2026-05-07 22:15 | 40.96096 | -95.93919 | 13256 ft | 408 kts | 180° |
| 2026-05-07 22:15 | 40.93246 | -95.93643 | 13875 ft | 413 kts | 180° |
| 2026-05-07 22:15 | 40.90372 | -95.93366 | 14471 ft | 416 kts | 180° |
| 2026-05-07 22:16 | 40.87472 | -95.93087 | 15098 ft | 419 kts | 181° |
| 2026-05-07 22:16 | 40.84554 | -95.92807 | 15714 ft | 422 kts | 181° |
| 2026-05-07 22:16 | 40.81605 | -95.92526 | 16285 ft | 426 kts | 181° |
| 2026-05-07 22:16 | 40.78670 | -95.92246 | 16855 ft | 430 kts | 181° |
| 2026-05-07 22:17 | 40.75672 | -95.91961 | 17422 ft | 433 kts | 181° |
| 2026-05-07 22:17 | 40.72646 | -95.91673 | 17925 ft | 439 kts | 181° |
| 2026-05-07 22:17 | 40.69582 | -95.91383 | 18409 ft | 443 kts | 181° |
| 2026-05-07 22:17 | 40.66503 | -95.91091 | 18942 ft | 445 kts | 181° |
| 2026-05-07 22:18 | 40.63405 | -95.90795 | 19484 ft | 446 kts | 181° |
| 2026-05-07 22:18 | 40.57172 | -95.90203 | 20463 ft | 452 kts | 181° |
| 2026-05-07 22:18 | 40.54026 | -95.89906 | 20930 ft | 455 kts | 181° |
| 2026-05-07 22:19 | 40.50858 | -95.89607 | 21412 ft | 457 kts | 181° |
| 2026-05-07 22:19 | 40.47676 | -95.89306 | 21870 ft | 460 kts | 181° |
| 2026-05-07 22:19 | 40.44475 | -95.89005 | 22320 ft | 462 kts | 181° |
| 2026-05-07 22:19 | 40.41255 | -95.88701 | 22758 ft | 465 kts | 181° |
| 2026-05-07 22:20 | 40.38020 | -95.88397 | 23176 ft | 468 kts | 181° |
| 2026-05-07 22:20 | 40.34764 | -95.88090 | 23565 ft | 470 kts | 181° |
| 2026-05-07 22:20 | 40.31540 | -95.87787 | 23931 ft | 472 kts | 182° |
| 2026-05-07 22:20 | 40.28218 | -95.87475 | 24336 ft | 473 kts | 182° |
| 2026-05-07 22:21 | 40.24980 | -95.87170 | 24711 ft | 474 kts | 182° |
| 2026-05-07 22:21 | 40.21675 | -95.86860 | 25064 ft | 476 kts | 182° |
| 2026-05-07 22:21 | 40.18368 | -95.86551 | 25413 ft | 477 kts | 182° |
| 2026-05-07 22:21 | 40.15045 | -95.86240 | 25746 ft | 479 kts | 182° |
| 2026-05-07 22:22 | 40.11716 | -95.85929 | 26074 ft | 481 kts | 182° |
| 2026-05-07 22:22 | 40.08370 | -95.85617 | 26376 ft | 482 kts | 183° |
| 2026-05-07 22:22 | 40.05018 | -95.85305 | 26713 ft | 483 kts | 183° |
| 2026-05-07 22:22 | 40.01657 | -95.84992 | 27051 ft | 484 kts | 183° |
| 2026-05-07 22:23 | 39.98291 | -95.84678 | 27361 ft | 486 kts | 183° |
| 2026-05-07 22:23 | 39.94915 | -95.84364 | 27666 ft | 487 kts | 184° |
| 2026-05-07 22:23 | 39.91531 | -95.84050 | 27962 ft | 488 kts | 184° |
| 2026-05-07 22:23 | 39.88139 | -95.83735 | 28313 ft | 487 kts | 184° |
| 2026-05-07 22:24 | 39.84780 | -95.83418 | 28937 ft | 480 kts | 184° |
| 2026-05-07 22:24 | 39.81514 | -95.83109 | 29602 ft | 474 kts | 185° |
| 2026-05-07 22:24 | 39.78193 | -95.82797 | 30102 ft | 471 kts | 185° |
| 2026-05-07 22:24 | 39.74969 | -95.82499 | 30404 ft | 470 kts | 185° |
| 2026-05-07 22:25 | 39.71705 | -95.82202 | 30675 ft | 471 kts | 185° |
| 2026-05-07 22:25 | 39.68437 | -95.81904 | 31005 ft | 469 kts | 185° |
| 2026-05-07 22:25 | 39.65186 | -95.81605 | 31375 ft | 466 kts | 186° |
| 2026-05-07 22:25 | 39.61969 | -95.81306 | 31892 ft | 460 kts | 186° |
| 2026-05-07 22:26 | 39.58779 | -95.81009 | 32285 ft | 458 kts | 186° |
| 2026-05-07 22:26 | 39.55603 | -95.80718 | 32537 ft | 458 kts | 186° |
| 2026-05-07 22:26 | 39.52415 | -95.80430 | 32782 ft | 459 kts | 186° |
| 2026-05-07 22:26 | 39.49228 | -95.80140 | 33104 ft | 457 kts | 186° |
| 2026-05-07 22:27 | 39.46064 | -95.79850 | 33479 ft | 455 kts | 186° |
| 2026-05-07 22:27 | 39.42915 | -95.79560 | 33811 ft | 452 kts | 187° |
| 2026-05-07 22:27 | 39.39779 | -95.79272 | 34082 ft | 451 kts | 187° |
| 2026-05-07 22:27 | 39.36646 | -95.78987 | 34252 ft | 453 kts | 187° |
| 2026-05-07 22:28 | 39.33499 | -95.78704 | 34404 ft | 454 kts | 187° |
| 2026-05-07 22:28 | 39.30343 | -95.78418 | 34608 ft | 454 kts | 187° |
| 2026-05-07 22:28 | 39.27189 | -95.78131 | 34824 ft | 454 kts | 187° |
| 2026-05-07 22:29 | 39.20893 | -95.77562 | 34899 ft | 458 kts | 187° |
| 2026-05-07 22:29 | 39.14552 | -95.76980 | 34914 ft | 453 kts | 187° |
| 2026-05-07 22:30 | 39.08295 | -95.76406 | 34926 ft | 449 kts | 187° |
| 2026-05-07 22:30 | 39.02101 | -95.75846 | 34926 ft | 447 kts | 187° |
| 2026-05-07 22:31 | 38.95897 | -95.75288 | 34909 ft | 446 kts | 187° |
| 2026-05-07 22:31 | 38.89706 | -95.74731 | 34921 ft | 446 kts | 187° |
| 2026-05-07 22:32 | 38.83514 | -95.74175 | 34932 ft | 446 kts | 187° |
| 2026-05-07 22:32 | 38.77310 | -95.73620 | 34939 ft | 447 kts | 187° |
| 2026-05-07 22:33 | 38.71081 | -95.73062 | 34940 ft | 448 kts | 187° |
| 2026-05-07 22:33 | 38.64850 | -95.72504 | 34954 ft | 449 kts | 187° |
| 2026-05-07 22:34 | 38.58633 | -95.71948 | 34958 ft | 451 kts | 187° |
| 2026-05-07 22:34 | 38.52361 | -95.71388 | 34957 ft | 452 kts | 187° |
| 2026-05-07 22:35 | 38.46092 | -95.70818 | 34956 ft | 452 kts | 187° |
| 2026-05-07 22:35 | 38.39823 | -95.70259 | 34970 ft | 451 kts | 187° |
| 2026-05-07 22:36 | 38.33557 | -95.69709 | 34958 ft | 451 kts | 187° |
| 2026-05-07 22:36 | 38.27301 | -95.69156 | 34967 ft | 450 kts | 187° |
| 2026-05-07 22:37 | 38.21100 | -95.68608 | 34960 ft | 449 kts | 187° |
| 2026-05-07 22:37 | 38.14854 | -95.68055 | 34963 ft | 448 kts | 187° |
| 2026-05-07 22:38 | 38.08637 | -95.67507 | 34963 ft | 447 kts | 187° |
| 2026-05-07 22:38 | 38.02427 | -95.66959 | 34960 ft | 446 kts | 187° |
| 2026-05-07 22:39 | 37.96234 | -95.66415 | 34966 ft | 445 kts | 187° |
| 2026-05-07 22:39 | 37.90101 | -95.65877 | 34981 ft | 445 kts | 187° |
| 2026-05-07 22:40 | 37.83915 | -95.65337 | 34982 ft | 445 kts | 187° |
| 2026-05-07 22:40 | 37.77744 | -95.64797 | 34975 ft | 443 kts | 187° |
| 2026-05-07 22:41 | 37.71591 | -95.64259 | 34983 ft | 443 kts | 188° |
| 2026-05-07 22:41 | 37.65430 | -95.63723 | 34989 ft | 444 kts | 188° |
| 2026-05-07 22:42 | 37.59309 | -95.63191 | 34986 ft | 444 kts | 187° |
| 2026-05-07 22:42 | 37.53143 | -95.62654 | 34991 ft | 443 kts | 188° |
| 2026-05-07 22:43 | 37.46993 | -95.62121 | 34998 ft | 443 kts | 188° |
| 2026-05-07 22:43 | 37.40838 | -95.61588 | 35003 ft | 443 kts | 188° |
| 2026-05-07 22:44 | 37.34687 | -95.61057 | 34996 ft | 443 kts | 188° |
| 2026-05-07 22:44 | 37.28558 | -95.60526 | 34987 ft | 441 kts | 188° |
| 2026-05-07 22:45 | 37.23478 | -95.60087 | 34998 ft | 440 kts | 189° |
| 2026-05-07 22:45 | 37.17385 | -95.59563 | 34999 ft | 438 kts | 189° |
| 2026-05-07 22:46 | 37.11298 | -95.59040 | 35002 ft | 437 kts | 189° |
| 2026-05-07 22:46 | 37.05222 | -95.58518 | 34995 ft | 436 kts | 189° |
| 2026-05-07 22:47 | 36.99214 | -95.58004 | 35000 ft | 435 kts | 190° |
| 2026-05-07 22:47 | 36.93169 | -95.57488 | 35002 ft | 434 kts | 190° |
| 2026-05-07 22:48 | 36.87137 | -95.56974 | 35008 ft | 434 kts | 190° |